createdAt,value
2018-04-15T00:00:09.650Z,990.21
2018-04-15T00:01:09.803Z,990.20
2018-04-15T00:02:09.957Z,990.18
2018-04-15T00:03:10.108Z,990.13
2018-04-15T00:04:10.260Z,990.13
2018-04-15T00:05:10.411Z,990.11
2018-04-15T00:06:10.560Z,990.10
2018-04-15T00:07:10.716Z,990.10
2018-04-15T00:08:10.864Z,990.09
2018-04-15T00:09:11.015Z,990.11
2018-04-15T00:10:11.166Z,990.10
2018-04-15T00:11:11.318Z,990.06
2018-04-15T00:12:11.470Z,990.03
2018-04-15T00:13:11.620Z,990.08
2018-04-15T00:14:11.765Z,990.07
2018-04-15T00:15:11.915Z,990.03
2018-04-15T00:16:12.065Z,990.01
2018-04-15T00:17:12.217Z,990.02
2018-04-15T00:18:12.365Z,990.01
2018-04-15T00:19:12.520Z,989.96
2018-04-15T00:20:12.671Z,989.99
2018-04-15T00:21:12.823Z,989.99
2018-04-15T00:22:12.974Z,989.92
2018-04-15T00:23:13.125Z,989.90
2018-04-15T00:24:13.275Z,989.88
2018-04-15T00:25:13.426Z,989.86
2018-04-15T00:26:13.578Z,989.84
2018-04-15T00:27:13.734Z,989.82
2018-04-15T00:28:13.881Z,989.83
2018-04-15T00:29:14.033Z,989.84
2018-04-15T00:30:14.182Z,989.88
2018-04-15T00:31:14.338Z,989.89
2018-04-15T00:32:14.491Z,989.88
2018-04-15T00:33:14.639Z,989.89
2018-04-15T00:34:14.790Z,989.92
2018-04-15T00:35:14.946Z,989.93
2018-04-15T00:36:15.094Z,989.91
2018-04-15T00:37:15.245Z,989.91
2018-04-15T00:38:15.397Z,989.85
2018-04-15T00:39:15.545Z,989.82
2018-04-15T00:40:15.699Z,989.84
2018-04-15T00:41:15.845Z,989.83
2018-04-15T00:42:15.996Z,989.80
2018-04-15T00:43:16.148Z,989.75
2018-04-15T00:44:16.300Z,989.72
2018-04-15T00:45:16.450Z,989.78
2018-04-15T00:46:16.604Z,989.69
2018-04-15T00:47:16.750Z,989.71
2018-04-15T00:48:16.902Z,989.69
2018-04-15T00:49:17.054Z,989.67
2018-04-15T00:50:17.202Z,989.63
2018-04-15T00:51:17.353Z,989.61
2018-04-15T00:52:17.506Z,989.62
2018-04-15T00:53:17.655Z,989.60
2018-04-15T00:54:17.806Z,989.65
2018-04-15T00:55:17.956Z,989.58
2018-04-15T00:56:18.109Z,989.64
2018-04-15T00:57:18.259Z,989.66
2018-04-15T00:58:18.413Z,989.65
2018-04-15T00:59:18.564Z,989.69
2018-04-15T01:00:18.717Z,989.69
2018-04-15T01:01:18.863Z,989.67
2018-04-15T01:02:19.018Z,989.64
2018-04-15T01:03:19.165Z,989.64
2018-04-15T01:04:19.319Z,989.60
2018-04-15T01:05:19.468Z,989.58
2018-04-15T01:06:19.620Z,989.58
2018-04-15T01:07:19.772Z,989.57
2018-04-15T01:08:19.922Z,989.57
2018-04-15T01:09:20.073Z,989.58
2018-04-15T01:10:20.222Z,989.58
2018-04-15T01:11:20.374Z,989.54
2018-04-15T01:12:20.523Z,989.58
2018-04-15T01:13:20.677Z,989.61
2018-04-15T01:14:20.827Z,989.63
2018-04-15T01:15:20.980Z,989.59
2018-04-15T01:16:21.131Z,989.60
2018-04-15T01:17:21.280Z,989.61
2018-04-15T01:18:21.432Z,989.63
2018-04-15T01:19:21.582Z,989.63
2018-04-15T01:20:21.728Z,989.63
2018-04-15T01:21:21.882Z,989.63
2018-04-15T01:22:22.034Z,989.58
2018-04-15T01:23:22.184Z,989.52
2018-04-15T01:24:22.334Z,989.51
2018-04-15T01:25:22.486Z,989.53
2018-04-15T01:26:22.637Z,989.46
2018-04-15T01:27:22.792Z,989.49
2018-04-15T01:28:22.941Z,989.48
2018-04-15T01:29:23.092Z,989.50
2018-04-15T01:30:23.243Z,989.47
2018-04-15T01:31:23.394Z,989.47
2018-04-15T01:32:23.545Z,989.44
2018-04-15T01:33:23.697Z,989.43
2018-04-15T01:34:23.850Z,989.46
2018-04-15T01:35:24.001Z,989.45
2018-04-15T01:36:24.156Z,989.42
2018-04-15T01:37:24.309Z,989.45
2018-04-15T01:38:24.459Z,989.42
2018-04-15T01:39:24.609Z,989.47
2018-04-15T01:40:24.760Z,989.45
2018-04-15T01:41:24.913Z,989.42
2018-04-15T01:42:25.060Z,989.43
2018-04-15T01:43:25.213Z,989.45
2018-04-15T01:44:25.362Z,989.46
2018-04-15T01:45:25.512Z,989.44
2018-04-15T01:46:25.663Z,989.40
2018-04-15T01:47:25.818Z,989.45
2018-04-15T01:48:25.968Z,989.39
2018-04-15T01:49:26.121Z,989.39
2018-04-15T01:50:26.269Z,989.35
2018-04-15T01:51:26.421Z,989.33
2018-04-15T01:52:26.570Z,989.32
2018-04-15T01:53:26.722Z,989.31
2018-04-15T01:54:26.873Z,989.32
2018-04-15T01:55:27.024Z,989.31
2018-04-15T01:56:27.176Z,989.30
2018-04-15T01:57:27.325Z,989.28
2018-04-15T01:58:27.477Z,989.30
2018-04-15T01:59:27.629Z,989.27
2018-04-15T02:00:27.782Z,989.30
2018-04-15T02:01:27.931Z,989.31
2018-04-15T02:02:28.080Z,989.30
2018-04-15T02:03:28.236Z,989.30
2018-04-15T02:04:28.383Z,989.32
2018-04-15T02:05:28.535Z,989.35
2018-04-15T02:06:28.686Z,989.36
2018-04-15T02:07:28.837Z,989.36
2018-04-15T02:08:28.988Z,989.42
2018-04-15T02:09:29.136Z,989.42
2018-04-15T02:10:29.290Z,989.43
2018-04-15T02:11:29.441Z,989.42
2018-04-15T02:12:29.591Z,989.42
2018-04-15T02:13:29.743Z,989.38
2018-04-15T02:14:29.895Z,989.39
2018-04-15T02:15:30.052Z,989.40
2018-04-15T02:16:30.200Z,989.36
2018-04-15T02:17:30.348Z,989.38
2018-04-15T02:18:30.503Z,989.37
2018-04-15T02:19:30.653Z,989.32
2018-04-15T02:20:30.803Z,989.30
2018-04-15T02:21:30.953Z,989.29
2018-04-15T02:22:31.106Z,989.26
2018-04-15T02:23:31.258Z,989.25
2018-04-15T02:24:31.410Z,989.22
2018-04-15T02:25:31.561Z,989.16
2018-04-15T02:26:31.712Z,989.21
2018-04-15T02:27:31.861Z,989.17
2018-04-15T02:28:32.013Z,989.19
2018-04-15T02:29:32.164Z,989.16
2018-04-15T02:30:32.313Z,989.20
2018-04-15T02:31:32.461Z,989.17
2018-04-15T02:32:32.614Z,989.11
2018-04-15T02:33:32.765Z,989.15
2018-04-15T02:34:32.916Z,989.12
2018-04-15T02:35:33.073Z,989.08
2018-04-15T02:36:33.218Z,989.06
2018-04-15T02:37:33.370Z,989.07
2018-04-15T02:38:33.518Z,989.03
2018-04-15T02:39:33.669Z,989.01
2018-04-15T02:40:33.822Z,988.97
2018-04-15T02:41:33.972Z,989.02
2018-04-15T02:42:34.123Z,988.92
2018-04-15T02:43:34.272Z,988.97
2018-04-15T02:44:34.420Z,988.93
2018-04-15T02:45:34.569Z,988.94
2018-04-15T02:46:34.720Z,988.98
2018-04-15T02:47:34.872Z,988.95
2018-04-15T02:48:35.031Z,988.88
2018-04-15T02:49:35.176Z,988.89
2018-04-15T02:50:35.326Z,988.90
2018-04-15T02:51:35.476Z,988.84
2018-04-15T02:52:35.617Z,988.84
2018-04-15T02:53:35.765Z,988.89
2018-04-15T02:54:35.917Z,988.87
2018-04-15T02:55:36.066Z,988.86
2018-04-15T02:56:36.221Z,988.86
2018-04-15T02:57:36.366Z,988.86
2018-04-15T02:58:36.522Z,988.83
2018-04-15T02:59:36.671Z,988.85
2018-04-15T03:00:36.823Z,988.83
2018-04-15T03:01:36.974Z,988.83
2018-04-15T03:02:37.157Z,988.86
2018-04-15T03:03:37.305Z,988.82
2018-04-15T03:04:37.457Z,988.86
2018-04-15T03:05:37.606Z,988.84
2018-04-15T03:06:37.756Z,988.87
2018-04-15T03:07:37.907Z,988.88
2018-04-15T03:08:38.059Z,988.87
2018-04-15T03:09:38.209Z,988.87
2018-04-15T03:10:38.361Z,988.89
2018-04-15T03:11:38.510Z,988.88
2018-04-15T03:12:38.662Z,988.93
2018-04-15T03:13:38.810Z,988.91
2018-04-15T03:14:38.972Z,988.92
2018-04-15T03:15:39.110Z,988.93
2018-04-15T03:16:39.260Z,988.93
2018-04-15T03:17:39.409Z,988.90
2018-04-15T03:18:39.561Z,988.86
2018-04-15T03:19:39.709Z,988.83
2018-04-15T03:20:39.859Z,988.83
2018-04-15T03:21:40.011Z,988.82
2018-04-15T03:22:40.163Z,988.81
2018-04-15T03:23:40.310Z,988.79
2018-04-15T03:24:40.461Z,988.76
2018-04-15T03:25:40.611Z,988.75
2018-04-15T03:26:40.760Z,988.76
2018-04-15T03:27:40.912Z,988.77
2018-04-15T03:28:41.060Z,988.77
2018-04-15T03:29:41.210Z,988.75
2018-04-15T03:30:41.359Z,988.72
2018-04-15T03:31:41.509Z,988.73
2018-04-15T03:32:41.658Z,988.73
2018-04-15T03:33:41.811Z,988.71
2018-04-15T03:34:41.960Z,988.70
2018-04-15T03:35:42.112Z,988.75
2018-04-15T03:36:42.263Z,988.72
2018-04-15T03:37:42.414Z,988.72
2018-04-15T03:38:42.567Z,988.72
2018-04-15T03:39:42.716Z,988.71
2018-04-15T03:40:42.865Z,988.69
2018-04-15T03:41:43.060Z,988.68
2018-04-15T03:42:43.166Z,988.67
2018-04-15T03:43:43.315Z,988.66
2018-04-15T03:44:43.463Z,988.69
2018-04-15T03:45:43.616Z,988.70
2018-04-15T03:46:43.763Z,988.66
2018-04-15T03:47:43.913Z,988.67
2018-04-15T03:48:44.065Z,988.61
2018-04-15T03:49:44.213Z,988.62
2018-04-15T03:50:44.366Z,988.66
2018-04-15T03:51:44.519Z,988.63
2018-04-15T03:52:44.671Z,988.64
2018-04-15T03:53:44.819Z,988.65
2018-04-15T03:54:44.973Z,988.66
2018-04-15T03:55:45.122Z,988.62
2018-04-15T03:56:45.271Z,988.60
2018-04-15T03:57:45.420Z,988.58
2018-04-15T03:58:45.566Z,988.58
2018-04-15T03:59:45.720Z,988.56
2018-04-15T04:00:45.870Z,988.56
2018-04-15T04:01:46.027Z,988.54
2018-04-15T04:02:46.173Z,988.55
2018-04-15T04:03:46.325Z,988.55
2018-04-15T04:04:46.471Z,988.53
2018-04-15T04:05:46.627Z,988.54
2018-04-15T04:06:46.773Z,988.49
2018-04-15T04:07:46.924Z,988.48
2018-04-15T04:08:47.077Z,988.49
2018-04-15T04:09:47.225Z,988.46
2018-04-15T04:10:47.377Z,988.46
2018-04-15T04:11:47.528Z,988.40
2018-04-15T04:12:47.676Z,988.42
2018-04-15T04:13:47.828Z,988.45
2018-04-15T04:14:47.976Z,988.48
2018-04-15T04:15:48.130Z,988.46
2018-04-15T04:16:48.282Z,988.47
2018-04-15T04:17:48.430Z,988.47
2018-04-15T04:18:48.582Z,988.48
2018-04-15T04:19:48.731Z,988.44
2018-04-15T04:20:48.880Z,988.41
2018-04-15T04:21:49.030Z,988.43
2018-04-15T04:22:49.182Z,988.41
2018-04-15T04:23:49.329Z,988.43
2018-04-15T04:24:49.479Z,988.40
2018-04-15T04:25:49.631Z,988.39
2018-04-15T04:26:49.781Z,988.40
2018-04-15T04:27:49.935Z,988.42
2018-04-15T04:28:50.086Z,988.37
2018-04-15T04:29:50.236Z,988.33
2018-04-15T04:30:50.388Z,988.37
2018-04-15T04:31:50.549Z,988.35
2018-04-15T04:32:50.690Z,988.32
2018-04-15T04:33:50.844Z,988.29
2018-04-15T04:34:50.992Z,988.24
2018-04-15T04:35:51.141Z,988.26
2018-04-15T04:36:51.287Z,988.25
2018-04-15T04:37:51.442Z,988.26
2018-04-15T04:38:51.591Z,988.20
2018-04-15T04:39:51.744Z,988.19
2018-04-15T04:40:51.898Z,988.21
2018-04-15T04:41:52.047Z,988.21
2018-04-15T04:42:52.197Z,988.21
2018-04-15T04:43:52.349Z,988.22
2018-04-15T04:44:52.495Z,988.25
2018-04-15T04:45:52.643Z,988.24
2018-04-15T04:46:52.793Z,988.25
2018-04-15T04:47:52.946Z,988.23
2018-04-15T04:48:53.096Z,988.22
2018-04-15T04:49:53.245Z,988.25
2018-04-15T04:50:53.401Z,988.23
2018-04-15T04:51:53.563Z,988.23
2018-04-15T04:52:53.699Z,988.23
2018-04-15T04:53:53.853Z,988.21
2018-04-15T04:54:54.003Z,988.20
2018-04-15T04:55:54.152Z,988.20
2018-04-15T04:56:54.304Z,988.17
2018-04-15T04:57:54.454Z,988.18
2018-04-15T04:58:54.608Z,988.21
2018-04-15T04:59:54.758Z,988.15
2018-04-15T05:00:54.910Z,988.14
2018-04-15T05:01:55.063Z,988.11
2018-04-15T05:02:55.213Z,988.11
2018-04-15T05:03:55.366Z,988.15
2018-04-15T05:04:55.517Z,988.17
2018-04-15T05:05:55.668Z,988.13
2018-04-15T05:06:55.820Z,988.14
2018-04-15T05:07:55.971Z,988.12
2018-04-15T05:08:56.122Z,988.08
2018-04-15T05:09:56.275Z,988.08
2018-04-15T05:10:56.427Z,988.13
2018-04-15T05:11:56.575Z,988.10
2018-04-15T05:12:56.723Z,988.12
2018-04-15T05:13:56.875Z,988.07
2018-04-15T05:14:57.025Z,988.07
2018-04-15T05:15:57.175Z,988.11
2018-04-15T05:16:57.323Z,988.05
2018-04-15T05:17:57.477Z,988.08
2018-04-15T05:18:57.626Z,988.06
2018-04-15T05:19:57.779Z,988.10
2018-04-15T05:20:57.929Z,988.08
2018-04-15T05:21:58.078Z,988.07
2018-04-15T05:22:58.229Z,988.02
2018-04-15T05:23:58.379Z,988.03
2018-04-15T05:24:58.533Z,988.02
2018-04-15T05:25:58.682Z,988.06
2018-04-15T05:26:58.835Z,988.06
2018-04-15T05:27:58.986Z,988.01
2018-04-15T05:28:59.138Z,988.05
2018-04-15T05:29:59.289Z,988.06
2018-04-15T05:30:59.441Z,988.03
2018-04-15T05:31:59.599Z,988.03
2018-04-15T05:32:59.747Z,987.96
2018-04-15T05:33:59.900Z,987.99
2018-04-15T05:35:00.052Z,987.98
2018-04-15T05:36:00.205Z,988.01
2018-04-15T05:37:00.351Z,988.02
2018-04-15T05:38:00.507Z,987.97
2018-04-15T05:39:00.655Z,988.03
2018-04-15T05:40:00.805Z,988.04
2018-04-15T05:41:00.956Z,988.01
2018-04-15T05:42:01.107Z,988.08
2018-04-15T05:43:01.260Z,988.07
2018-04-15T05:44:01.417Z,988.07
2018-04-15T05:45:01.581Z,988.09
2018-04-15T05:46:01.700Z,988.08
2018-04-15T05:47:01.849Z,988.05
2018-04-15T05:48:01.999Z,988.05
2018-04-15T05:49:02.149Z,988.03
2018-04-15T05:50:02.303Z,988.08
2018-04-15T05:51:02.454Z,988.08
2018-04-15T05:52:02.612Z,988.09
2018-04-15T05:53:02.755Z,988.10
2018-04-15T05:54:02.907Z,988.10
2018-04-15T05:55:03.060Z,988.10
2018-04-15T05:56:03.213Z,988.11
2018-04-15T05:57:03.363Z,988.08
2018-04-15T05:58:03.515Z,988.10
2018-04-15T05:59:03.667Z,988.11
2018-04-15T06:00:03.822Z,988.08
2018-04-15T06:01:03.971Z,988.07
2018-04-15T06:02:04.121Z,988.12
2018-04-15T06:03:04.270Z,988.11
2018-04-15T06:04:04.421Z,988.08
2018-04-15T06:05:04.573Z,988.11
2018-04-15T06:06:04.726Z,988.11
2018-04-15T06:07:04.879Z,988.12
2018-04-15T06:08:05.030Z,988.06
2018-04-15T06:09:05.183Z,988.09
2018-04-15T06:10:05.334Z,988.14
2018-04-15T06:11:05.487Z,988.16
2018-04-15T06:12:05.640Z,988.16
2018-04-15T06:13:05.789Z,988.18
2018-04-15T06:14:05.940Z,988.17
2018-04-15T06:15:06.091Z,988.18
2018-04-15T06:16:06.242Z,988.21
2018-04-15T06:17:06.396Z,988.18
2018-04-15T06:18:06.549Z,988.18
2018-04-15T06:19:06.700Z,988.16
2018-04-15T06:20:06.857Z,988.17
2018-04-15T06:21:06.997Z,988.16
2018-04-15T06:22:07.161Z,988.18
2018-04-15T06:23:07.306Z,988.20
2018-04-15T06:24:07.456Z,988.23
2018-04-15T06:25:07.610Z,988.19
2018-04-15T06:26:07.763Z,988.19
2018-04-15T06:27:07.917Z,988.15
2018-04-15T06:28:08.065Z,988.18
2018-04-15T06:29:08.216Z,988.18
2018-04-15T06:30:08.375Z,988.16
2018-04-15T06:31:08.521Z,988.18
2018-04-15T06:32:08.673Z,988.15
2018-04-15T06:33:08.826Z,988.15
2018-04-15T06:34:08.976Z,988.17
2018-04-15T06:35:09.132Z,988.15
2018-04-15T06:36:09.293Z,988.14
2018-04-15T06:37:09.439Z,988.16
2018-04-15T06:38:09.589Z,988.16
2018-04-15T06:39:09.744Z,988.16
2018-04-15T06:40:09.897Z,988.18
2018-04-15T06:41:10.050Z,988.18
2018-04-15T06:42:10.200Z,988.20
2018-04-15T06:43:10.353Z,988.19
2018-04-15T06:44:10.505Z,988.20
2018-04-15T06:45:10.656Z,988.22
2018-04-15T06:46:10.815Z,988.16
2018-04-15T06:47:10.963Z,988.20
2018-04-15T06:48:11.115Z,988.23
2018-04-15T06:49:11.277Z,988.23
2018-04-15T06:50:11.420Z,988.21
2018-04-15T06:51:11.573Z,988.20
2018-04-15T06:52:11.727Z,988.18
2018-04-15T06:53:11.879Z,988.17
2018-04-15T06:54:12.037Z,988.17
2018-04-15T06:55:12.186Z,988.17
2018-04-15T06:56:12.341Z,988.14
2018-04-15T06:57:12.494Z,988.14
2018-04-15T06:58:12.648Z,988.14
2018-04-15T06:59:12.802Z,988.10
2018-04-15T07:00:12.955Z,988.10
2018-04-15T07:01:13.107Z,988.10
2018-04-15T07:02:13.271Z,988.07
2018-04-15T07:03:13.422Z,988.08
2018-04-15T07:04:13.570Z,988.05
2018-04-15T07:05:13.727Z,988.09
2018-04-15T07:06:13.879Z,988.06
2018-04-15T07:07:14.034Z,988.04
2018-04-15T07:08:14.187Z,988.07
2018-04-15T07:09:14.338Z,988.03
2018-04-15T07:10:14.494Z,988.04
2018-04-15T07:11:14.647Z,988.05
2018-04-15T07:12:14.801Z,988.03
2018-04-15T07:13:14.956Z,988.07
2018-04-15T07:14:15.110Z,988.05
2018-04-15T07:15:15.275Z,988.09
2018-04-15T07:16:15.429Z,988.08
2018-04-15T07:17:15.586Z,988.12
2018-04-15T07:18:15.737Z,988.12
2018-04-15T07:19:15.893Z,988.14
2018-04-15T07:20:16.046Z,988.11
2018-04-15T07:21:16.201Z,988.12
2018-04-15T07:22:16.359Z,988.15
2018-04-15T07:23:16.508Z,988.13
2018-04-15T07:24:16.662Z,988.14
2018-04-15T07:25:16.817Z,988.15
2018-04-15T07:26:16.972Z,988.15
2018-04-15T07:27:17.128Z,988.20
2018-04-15T07:28:17.289Z,988.21
2018-04-15T07:29:17.437Z,988.25
2018-04-15T07:30:17.589Z,988.25
2018-04-15T07:31:17.742Z,988.26
2018-04-15T07:32:17.898Z,988.26
2018-04-15T07:33:18.050Z,988.29
2018-04-15T07:34:18.206Z,988.27
2018-04-15T07:35:18.358Z,988.27
2018-04-15T07:36:18.529Z,988.29
2018-04-15T07:37:18.666Z,988.30
2018-04-15T07:38:18.819Z,988.32
2018-04-15T07:39:18.971Z,988.31
2018-04-15T07:40:19.128Z,988.36
2018-04-15T07:41:19.280Z,988.36
2018-04-15T07:42:19.433Z,988.35
2018-04-15T07:43:19.603Z,988.38
2018-04-15T07:44:19.742Z,988.34
2018-04-15T07:45:19.895Z,988.32
2018-04-15T07:46:20.050Z,988.34
2018-04-15T07:47:20.207Z,988.32
2018-04-15T07:48:20.359Z,988.29
2018-04-15T07:49:20.513Z,988.30
2018-04-15T07:50:20.668Z,988.27
2018-04-15T07:51:20.821Z,988.26
2018-04-15T07:52:20.977Z,988.24
2018-04-15T07:53:21.127Z,988.26
2018-04-15T07:54:21.284Z,988.24
2018-04-15T07:55:21.441Z,988.25
2018-04-15T07:56:21.598Z,988.23
2018-04-15T07:57:21.751Z,988.25
2018-04-15T07:58:21.907Z,988.24
2018-04-15T07:59:22.068Z,988.24
2018-04-15T08:00:22.220Z,988.20
2018-04-15T08:01:22.376Z,988.23
2018-04-15T08:02:22.543Z,988.23
2018-04-15T08:03:22.691Z,988.23
2018-04-15T08:04:22.840Z,988.23
2018-04-15T08:05:22.995Z,988.24
2018-04-15T08:06:23.151Z,988.25
2018-04-15T08:07:23.306Z,988.26
2018-04-15T08:08:23.459Z,988.24
2018-04-15T08:09:23.614Z,988.27
2018-04-15T08:10:23.768Z,988.22
2018-04-15T08:11:23.923Z,988.22
2018-04-15T08:12:24.076Z,988.18
2018-04-15T08:13:24.229Z,988.18
2018-04-15T08:14:24.383Z,988.15
2018-04-15T08:15:24.533Z,988.15
2018-04-15T08:16:24.689Z,988.15
2018-04-15T08:17:24.843Z,988.14
2018-04-15T08:18:25.000Z,988.11
2018-04-15T08:19:25.153Z,988.11
2018-04-15T08:20:25.311Z,988.04
2018-04-15T08:21:25.462Z,988.05
2018-04-15T08:22:25.616Z,988.03
2018-04-15T08:23:25.768Z,988.01
2018-04-15T08:24:25.925Z,988.00
2018-04-15T08:25:26.077Z,988.01
2018-04-15T08:26:26.239Z,987.99
2018-04-15T08:27:26.388Z,988.00
2018-04-15T08:28:26.545Z,988.00
2018-04-15T08:29:26.699Z,987.96
2018-04-15T08:30:26.851Z,987.95
2018-04-15T08:31:27.015Z,987.97
2018-04-15T08:32:27.162Z,987.95
2018-04-15T08:33:27.315Z,987.92
2018-04-15T08:34:27.473Z,987.90
2018-04-15T08:35:27.625Z,987.91
2018-04-15T08:36:27.778Z,987.93
2018-04-15T08:37:27.934Z,987.89
2018-04-15T08:38:28.088Z,987.89
2018-04-15T08:39:28.245Z,987.90
2018-04-15T08:40:28.413Z,987.94
2018-04-15T08:41:28.565Z,987.89
2018-04-15T08:42:28.723Z,987.92
2018-04-15T08:43:28.879Z,987.86
2018-04-15T08:44:29.033Z,987.84
2018-04-15T08:45:29.187Z,987.87
2018-04-15T08:46:29.342Z,987.88
2018-04-15T08:47:29.498Z,987.88
2018-04-15T08:48:29.652Z,987.83
2018-04-15T08:49:29.810Z,987.82
2018-04-15T08:50:29.968Z,987.80
2018-04-15T08:51:30.124Z,987.77
2018-04-15T08:52:30.279Z,987.77
2018-04-15T08:53:30.432Z,987.74
2018-04-15T08:54:30.606Z,987.71
2018-04-15T08:55:30.740Z,987.71
2018-04-15T08:56:30.894Z,987.68
2018-04-15T08:57:31.055Z,987.77
2018-04-15T08:58:31.209Z,987.69
2018-04-15T08:59:31.364Z,987.63
2018-04-15T09:00:31.524Z,987.62
2018-04-15T09:01:31.683Z,987.60
2018-04-15T09:02:31.836Z,987.57
2018-04-15T09:03:31.991Z,987.55
2018-04-15T09:04:32.152Z,987.59
2018-04-15T09:05:32.311Z,987.49
2018-04-15T09:06:32.471Z,987.50
2018-04-15T09:07:32.626Z,987.51
2018-04-15T09:08:32.781Z,987.45
2018-04-15T09:09:32.939Z,987.48
2018-04-15T09:10:33.096Z,987.43
2018-04-15T09:11:33.249Z,987.41
2018-04-15T09:12:33.409Z,987.46
2018-04-15T09:13:33.563Z,987.35
2018-04-15T09:14:33.718Z,987.31
2018-04-15T09:15:33.891Z,987.34
2018-04-15T09:16:34.048Z,987.32
2018-04-15T09:17:34.207Z,987.32
2018-04-15T09:18:34.380Z,987.33
2018-04-15T09:19:34.546Z,987.28
2018-04-15T09:20:34.697Z,987.34
2018-04-15T09:21:34.858Z,987.28
2018-04-15T09:22:35.027Z,987.24
2018-04-15T09:23:35.210Z,987.25
2018-04-15T09:24:35.369Z,987.19
2018-04-15T09:25:35.536Z,987.15
2018-04-15T09:26:35.692Z,987.16
2018-04-15T09:27:35.855Z,987.12
2018-04-15T09:28:36.020Z,987.16
2018-04-15T09:29:36.197Z,987.10
2018-04-15T09:30:36.343Z,987.10
2018-04-15T09:31:36.499Z,987.12
2018-04-15T09:32:36.655Z,987.06
2018-04-15T09:33:36.810Z,987.03
2018-04-15T09:34:36.966Z,987.00
2018-04-15T09:35:37.169Z,987.02
2018-04-15T09:36:37.276Z,986.99
2018-04-15T09:37:37.430Z,987.03
2018-04-15T09:38:37.594Z,987.01
2018-04-15T09:39:37.754Z,987.01
2018-04-15T09:40:37.908Z,986.96
2018-04-15T09:41:38.062Z,986.95
2018-04-15T09:42:38.220Z,986.95
2018-04-15T09:43:38.415Z,986.93
2018-04-15T09:44:38.572Z,986.96
2018-04-15T09:45:38.737Z,986.97
2018-04-15T09:46:38.891Z,986.99
2018-04-15T09:47:39.046Z,986.96
2018-04-15T09:48:39.202Z,986.90
2018-04-15T09:49:39.358Z,986.89
2018-04-15T09:50:39.533Z,986.85
2018-04-15T09:51:39.689Z,986.87
2018-04-15T09:52:39.844Z,986.89
2018-04-15T09:53:39.999Z,986.89
2018-04-15T09:54:40.155Z,986.89
2018-04-15T09:55:40.311Z,986.91
2018-04-15T09:56:40.469Z,986.90
2018-04-15T09:57:40.627Z,986.90
2018-04-15T09:58:40.784Z,986.84
2018-04-15T09:59:40.977Z,986.85
2018-04-15T10:00:41.137Z,986.79
2018-04-15T10:01:41.290Z,986.79
2018-04-15T10:02:41.446Z,986.77
2018-04-15T10:03:41.599Z,986.79
2018-04-15T10:04:41.759Z,986.77
2018-04-15T10:05:41.918Z,986.76
2018-04-15T10:06:42.079Z,986.77
2018-04-15T10:07:42.236Z,986.84
2018-04-15T10:08:42.392Z,986.81
2018-04-15T10:09:42.548Z,986.86
2018-04-15T10:10:42.702Z,986.82
2018-04-15T10:11:42.859Z,986.80
2018-04-15T10:12:43.025Z,986.80
2018-04-15T10:13:43.186Z,986.79
2018-04-15T10:14:43.339Z,986.74
2018-04-15T10:15:43.499Z,986.77
2018-04-15T10:16:43.659Z,986.72
2018-04-15T10:17:43.814Z,986.71
2018-04-15T10:18:43.971Z,986.73
2018-04-15T10:19:44.125Z,986.75
2018-04-15T10:20:44.285Z,986.76
2018-04-15T10:21:44.441Z,986.76
2018-04-15T10:22:44.596Z,986.74
2018-04-15T10:23:44.752Z,986.74
2018-04-15T10:24:44.924Z,986.74
2018-04-15T10:25:45.080Z,986.74
2018-04-15T10:26:45.238Z,986.73
2018-04-15T10:27:45.396Z,986.73
2018-04-15T10:28:45.552Z,986.73
2018-04-15T10:29:45.727Z,986.68
2018-04-15T10:30:45.871Z,986.71
2018-04-15T10:31:46.030Z,986.66
2018-04-15T10:32:46.221Z,986.69
2018-04-15T10:33:46.350Z,986.68
2018-04-15T10:34:46.512Z,986.65
2018-04-15T10:35:46.699Z,986.64
2018-04-15T10:36:46.860Z,986.67
2018-04-15T10:37:47.016Z,986.67
2018-04-15T10:38:47.237Z,986.70
2018-04-15T10:39:47.346Z,986.68
2018-04-15T10:40:47.547Z,986.67
2018-04-15T10:41:47.755Z,986.67
2018-04-15T10:42:47.930Z,986.66
2018-04-15T10:43:48.090Z,986.63
2018-04-15T10:44:48.246Z,986.64
2018-04-15T10:45:48.423Z,986.64
2018-04-15T10:46:48.578Z,986.61
2018-04-15T10:47:48.736Z,986.61
2018-04-15T10:48:48.897Z,986.62
2018-04-15T10:49:49.052Z,986.61
2018-04-15T10:50:49.233Z,986.61
2018-04-15T10:51:49.398Z,986.63
2018-04-15T10:52:49.557Z,986.63
2018-04-15T10:53:49.711Z,986.65
2018-04-15T10:54:49.869Z,986.66
2018-04-15T10:55:50.024Z,986.68
2018-04-15T10:56:50.180Z,986.68
2018-04-15T10:57:50.341Z,986.68
2018-04-15T10:58:50.504Z,986.66
2018-04-15T10:59:50.664Z,986.67
2018-04-15T11:00:50.814Z,986.67
2018-04-15T11:01:50.976Z,986.70
2018-04-15T11:02:51.129Z,986.62
2018-04-15T11:03:51.285Z,986.67
2018-04-15T11:04:51.446Z,986.63
2018-04-15T11:05:51.604Z,986.61
2018-04-15T11:06:51.776Z,986.63
2018-04-15T11:07:51.935Z,986.58
2018-04-15T11:08:52.092Z,986.58
2018-04-15T11:09:52.249Z,986.62
2018-04-15T11:10:52.409Z,986.60
2018-04-15T11:11:52.566Z,986.59
2018-04-15T11:12:52.724Z,986.62
2018-04-15T11:13:52.906Z,986.60
2018-04-15T11:14:53.047Z,986.61
2018-04-15T11:15:53.201Z,986.60
2018-04-15T11:16:53.361Z,986.53
2018-04-15T11:17:53.518Z,986.54
2018-04-15T11:18:53.680Z,986.47
2018-04-15T11:19:53.889Z,986.45
2018-04-15T11:20:54.048Z,986.48
2018-04-15T11:21:54.205Z,986.45
2018-04-15T11:22:54.365Z,986.40
2018-04-15T11:23:54.528Z,986.42
2018-04-15T11:24:54.693Z,986.40
2018-04-15T11:25:54.851Z,986.41
2018-04-15T11:26:55.009Z,986.40
2018-04-15T11:27:55.171Z,986.39
2018-04-15T11:28:55.402Z,986.35
2018-04-15T11:29:55.537Z,986.36
2018-04-15T11:30:55.696Z,986.33
2018-04-15T11:31:55.855Z,986.33
2018-04-15T11:32:56.017Z,986.35
2018-04-15T11:33:56.179Z,986.35
2018-04-15T11:34:56.344Z,986.34
2018-04-15T11:35:56.509Z,986.33
2018-04-15T11:36:56.669Z,986.28
2018-04-15T11:37:56.829Z,986.29
2018-04-15T11:38:56.983Z,986.29
2018-04-15T11:39:57.146Z,986.24
2018-04-15T11:40:57.305Z,986.29
2018-04-15T11:41:57.465Z,986.26
2018-04-15T11:42:57.630Z,986.26
2018-04-15T11:43:57.787Z,986.22
2018-04-15T11:44:57.944Z,986.21
2018-04-15T11:45:58.103Z,986.21
2018-04-15T11:46:58.260Z,986.18
2018-04-15T11:47:58.420Z,986.14
2018-04-15T11:48:58.581Z,986.13
2018-04-15T11:49:58.739Z,986.15
2018-04-15T11:50:58.899Z,986.12
2018-04-15T11:51:59.060Z,986.10
2018-04-15T11:52:59.232Z,986.11
2018-04-15T11:53:59.395Z,986.10
2018-04-15T11:54:59.550Z,986.09
2018-04-15T11:55:59.709Z,986.08
2018-04-15T11:56:59.870Z,986.04
2018-04-15T11:58:00.034Z,986.03
2018-04-15T11:59:00.189Z,986.03
2018-04-15T12:00:00.347Z,985.98
2018-04-15T12:01:00.506Z,985.92
2018-04-15T12:02:00.665Z,985.96
2018-04-15T12:03:00.829Z,985.92
2018-04-15T12:04:00.987Z,985.94
2018-04-15T12:05:01.147Z,985.88
2018-04-15T12:06:01.307Z,985.90
2018-04-15T12:07:01.467Z,985.89
2018-04-15T12:08:01.672Z,985.92
2018-04-15T12:09:01.786Z,985.88
2018-04-15T12:10:01.947Z,985.87
2018-04-15T12:11:02.108Z,985.88
2018-04-15T12:12:02.267Z,985.89
2018-04-15T12:13:02.428Z,985.93
2018-04-15T12:14:02.586Z,985.92
2018-04-15T12:15:02.744Z,985.99
2018-04-15T12:16:02.905Z,985.94
2018-04-15T12:17:03.065Z,985.98
2018-04-15T12:18:03.225Z,985.95
2018-04-15T12:19:03.384Z,985.89
2018-04-15T12:20:03.553Z,985.88
2018-04-15T12:21:03.714Z,985.83
2018-04-15T12:22:03.880Z,985.87
2018-04-15T12:23:04.053Z,985.82
2018-04-15T12:24:04.216Z,985.84
2018-04-15T12:25:04.377Z,985.81
2018-04-15T12:26:04.535Z,985.81
2018-04-15T12:27:04.692Z,985.80
2018-04-15T12:28:04.855Z,985.77
2018-04-15T12:29:05.018Z,985.77
2018-04-15T12:30:05.179Z,985.81